createdAt,value
2023-07-25T00:01:24.364Z,100.00
2023-07-25T00:04:26.555Z,100.00
2023-07-25T00:07:28.265Z,100.00
2023-07-25T00:10:34.017Z,100.00
2023-07-25T00:13:36.233Z,100.00
2023-07-25T00:16:38.055Z,100.00
2023-07-25T00:19:39.813Z,100.00
2023-07-25T00:22:41.992Z,100.00
2023-07-25T00:25:46.116Z,100.00
2023-07-25T00:28:49.018Z,100.00
2023-07-25T00:31:51.066Z,100.00
2023-07-25T00:34:53.306Z,100.00
2023-07-25T00:37:55.022Z,100.00
2023-07-25T00:40:58.923Z,100.00
2023-07-25T00:44:00.944Z,100.00
2023-07-25T00:47:03.059Z,100.00
2023-07-25T00:50:05.760Z,100.00
2023-07-25T00:53:08.093Z,100.00
2023-07-25T00:56:13.450Z,100.00
2023-07-25T00:59:15.233Z,100.00
2023-07-25T01:02:20.704Z,100.00
2023-07-25T01:05:23.851Z,100.00
2023-07-25T01:08:25.611Z,100.00
2023-07-25T01:11:29.844Z,100.00
2023-07-25T01:14:32.268Z,100.00
2023-07-25T01:17:34.390Z,100.00
2023-07-25T01:20:37.113Z,100.00
2023-07-25T01:23:39.437Z,100.00
2023-07-25T01:26:45.039Z,100.00
2023-07-25T01:29:46.853Z,100.00
2023-07-25T01:32:49.086Z,100.00
2023-07-25T01:35:51.339Z,100.00
2023-07-25T01:38:53.288Z,100.00
2023-07-25T01:41:56.546Z,100.00
2023-07-25T01:44:58.796Z,100.00
2023-07-25T01:48:00.628Z,100.00
2023-07-25T01:51:02.730Z,100.00
2023-07-25T01:54:04.919Z,100.00
2023-07-25T01:57:08.904Z,100.00
2023-07-25T02:00:12.367Z,100.00
2023-07-25T02:03:14.479Z,100.00
2023-07-25T02:06:17.579Z,100.00
2023-07-25T02:09:19.605Z,100.00
2023-07-25T02:12:23.469Z,100.00
2023-07-25T02:15:25.456Z,100.00
2023-07-25T02:18:27.261Z,100.00
2023-07-25T02:21:29.485Z,100.00
2023-07-25T02:24:31.732Z,100.00
2023-07-25T02:27:35.183Z,100.00
2023-07-25T02:30:40.062Z,100.00
2023-07-25T02:33:41.977Z,100.00
2023-07-25T02:36:43.999Z,100.00
2023-07-25T02:39:46.093Z,100.00
2023-07-25T02:42:49.494Z,100.00
2023-07-25T02:45:51.629Z,100.00
2023-07-25T02:48:53.769Z,100.00
2023-07-25T02:51:55.837Z,100.00
2023-07-25T02:54:57.687Z,100.00
2023-07-25T02:58:01.795Z,100.00
2023-07-25T03:01:03.595Z,100.00
2023-07-25T03:04:08.328Z,100.00
2023-07-25T03:07:10.150Z,100.00
2023-07-25T03:10:13.061Z,100.00
2023-07-25T03:13:16.391Z,100.00
2023-07-25T03:16:18.667Z,100.00
2023-07-25T03:19:20.466Z,100.00
2023-07-25T03:22:22.278Z,100.00
2023-07-25T03:25:24.158Z,100.00
2023-07-25T03:28:27.285Z,100.00
2023-07-25T03:31:29.197Z,100.00
2023-07-25T03:34:31.207Z,100.00
2023-07-25T03:37:33.326Z,100.00
2023-07-25T03:40:35.301Z,100.00
2023-07-25T03:43:39.718Z,100.00
2023-07-25T03:46:41.774Z,100.00
2023-07-25T03:49:43.806Z,100.00
2023-07-25T03:52:45.858Z,100.00
2023-07-25T03:55:48.100Z,100.00
2023-07-25T03:58:51.551Z,100.00
2023-07-25T04:01:53.301Z,100.00
2023-07-25T04:04:55.603Z,100.00
2023-07-25T04:07:57.846Z,100.00
2023-07-25T04:10:59.738Z,100.00
2023-07-25T04:14:03.105Z,100.00
2023-07-25T04:17:05.638Z,100.00
2023-07-25T04:20:09.213Z,100.00
2023-07-25T04:23:11.624Z,100.00
2023-07-25T04:26:13.572Z,100.00
2023-07-25T04:29:17.063Z,100.00
2023-07-25T04:32:19.041Z,100.00
2023-07-25T04:35:21.069Z,100.00
2023-07-25T04:38:22.806Z,100.00
2023-07-25T04:41:25.852Z,100.00
2023-07-25T04:44:29.224Z,100.00
2023-07-25T04:47:31.305Z,100.00
2023-07-25T04:50:33.324Z,100.00
2023-07-25T04:53:35.436Z,100.00
2023-07-25T04:56:37.645Z,100.00
2023-07-25T04:59:43.144Z,100.00
2023-07-25T05:02:45.136Z,100.00
2023-07-25T05:05:47.708Z,100.00
2023-07-25T05:08:49.433Z,100.00
2023-07-25T05:11:51.480Z,100.00
2023-07-25T05:14:54.841Z,100.00
2023-07-25T05:17:56.772Z,100.00
2023-07-25T05:20:59.810Z,100.00
2023-07-25T05:24:01.765Z,100.00
2023-07-25T05:27:03.833Z,100.00
2023-07-25T05:30:08.156Z,100.00
2023-07-25T05:33:10.198Z,100.00
2023-07-25T05:36:12.446Z,100.00
2023-07-25T05:39:14.199Z,100.00
2023-07-25T05:42:15.894Z,100.00
2023-07-25T05:45:20.752Z,100.00
2023-07-25T05:48:25.089Z,100.00
2023-07-25T05:51:27.101Z,100.00
2023-07-25T05:54:29.068Z,100.00
2023-07-25T05:57:31.091Z,100.00
2023-07-25T06:00:35.250Z,100.00
2023-07-25T06:03:37.065Z,100.00
2023-07-25T06:06:40.221Z,100.00
2023-07-25T06:09:42.005Z,100.00
2023-07-25T06:12:44.074Z,100.00
2023-07-25T06:15:47.296Z,100.00
2023-07-25T06:18:50.362Z,100.00
2023-07-25T06:21:52.431Z,100.00
2023-07-25T06:24:54.592Z,100.00
2023-07-25T06:27:56.716Z,100.00
2023-07-25T06:31:00.057Z,100.00
2023-07-25T06:34:01.969Z,100.00
2023-07-25T06:37:03.946Z,100.00
2023-07-25T06:40:07.269Z,100.00
2023-07-25T06:43:09.236Z,100.00
2023-07-25T06:46:16.594Z,100.00
2023-07-25T06:49:18.626Z,100.00
2023-07-25T06:52:20.387Z,100.00
2023-07-25T06:55:22.572Z,100.00
2023-07-25T06:58:24.534Z,100.00
2023-07-25T07:01:29.486Z,100.00
2023-07-25T07:04:31.659Z,100.00
2023-07-25T07:07:34.643Z,100.00
2023-07-25T07:10:39.369Z,100.00
2023-07-25T07:13:41.142Z,100.00
2023-07-25T07:16:44.345Z,100.00
2023-07-25T07:19:46.287Z,100.00
2023-07-25T07:22:48.294Z,100.00
2023-07-25T07:25:51.443Z,100.00
2023-07-25T07:28:53.258Z,100.00
2023-07-25T07:31:56.472Z,100.00
2023-07-25T07:34:59.239Z,100.00
2023-07-25T07:38:01.021Z,100.00
2023-07-25T07:41:02.753Z,100.00
2023-07-25T07:44:04.954Z,100.00
2023-07-25T07:47:08.167Z,100.00
2023-07-25T07:50:10.535Z,100.00
2023-07-25T07:53:12.444Z,100.00
2023-07-25T07:56:14.455Z,100.00
2023-07-25T07:59:16.429Z,100.00
2023-07-25T08:02:20.944Z,100.00
2023-07-25T08:05:22.995Z,100.00
2023-07-25T08:08:25.068Z,100.00
2023-07-25T08:11:26.953Z,100.00
2023-07-25T08:14:28.932Z,100.00
2023-07-25T08:17:32.306Z,100.00
2023-07-25T08:20:34.536Z,100.00
2023-07-25T08:23:36.297Z,100.00
2023-07-25T08:26:38.058Z,100.00
2023-07-25T08:29:40.494Z,100.00
2023-07-25T08:32:43.693Z,100.00
2023-07-25T08:35:47.457Z,100.00
2023-07-25T08:38:49.200Z,100.00
2023-07-25T08:41:53.451Z,100.00
2023-07-25T08:44:56.682Z,100.00
2023-07-25T08:48:05.568Z,100.00
2023-07-25T08:51:08.632Z,100.00
2023-07-25T08:54:17.937Z,100.00
2023-07-25T08:57:22.357Z,100.00
2023-07-25T09:00:26.244Z,100.00
2023-07-25T09:03:30.819Z,100.00
2023-07-25T09:06:32.724Z,100.00
2023-07-25T09:09:34.625Z,100.00
2023-07-25T09:12:36.444Z,100.00
2023-07-25T09:15:38.316Z,100.00
2023-07-25T09:18:41.505Z,100.00
2023-07-25T09:21:48.277Z,100.00
2023-07-25T09:24:50.318Z,100.00
2023-07-25T09:27:55.011Z,100.00
2023-07-25T09:30:57.220Z,100.00
2023-07-25T09:34:00.665Z,100.00
2023-07-25T09:37:03.438Z,100.00
2023-07-25T09:40:09.024Z,100.00
2023-07-25T09:43:21.773Z,100.00
2023-07-25T09:46:23.541Z,100.00
2023-07-25T09:49:26.672Z,100.00
2023-07-25T09:52:28.842Z,100.00
2023-07-25T09:55:30.744Z,100.00
2023-07-25T09:58:33.093Z,100.00
2023-07-25T10:01:39.176Z,100.00
2023-07-25T10:04:42.977Z,100.00
2023-07-25T10:07:46.701Z,100.00
2023-07-25T10:10:49.414Z,100.00
2023-07-25T10:13:51.868Z,100.00
2023-07-25T10:16:53.889Z,100.00
2023-07-25T10:19:57.034Z,100.00
2023-07-25T10:23:07.828Z,100.00
2023-07-25T10:26:10.754Z,100.00
2023-07-25T10:29:38.055Z,100.00
2023-07-25T10:32:47.454Z,100.00
2023-07-25T10:35:52.678Z,100.00
2023-07-25T10:39:07.011Z,100.00
2023-07-25T10:42:15.696Z,100.00
2023-07-25T10:45:22.107Z,100.00
2023-07-25T10:48:31.931Z,100.00
2023-07-25T10:51:51.857Z,100.00
2023-07-25T10:55:04.046Z,100.00
2023-07-25T10:58:09.770Z,100.00
2023-07-25T11:01:33.125Z,100.00
2023-07-25T11:04:35.613Z,100.00
2023-07-25T11:07:41.886Z,100.00
2023-07-25T11:10:43.886Z,100.00
2023-07-25T11:13:47.040Z,100.00
2023-07-25T11:16:52.296Z,100.00
2023-07-25T11:19:54.243Z,100.00
2023-07-25T11:23:00.001Z,100.00
2023-07-25T11:26:03.708Z,100.00
2023-07-25T11:29:06.443Z,100.00
2023-07-25T11:32:09.788Z,100.00
2023-07-25T11:35:11.925Z,100.00
2023-07-25T11:38:15.119Z,100.00
2023-07-25T11:41:17.389Z,100.00
2023-07-25T11:44:20.532Z,100.00
2023-07-25T11:47:22.821Z,100.00
2023-07-25T11:50:31.045Z,100.00
2023-07-25T11:53:35.888Z,100.00
2023-07-25T11:56:41.136Z,100.00
2023-07-25T11:59:43.431Z,100.00
2023-07-25T12:02:45.278Z,100.00
2023-07-25T12:05:53.144Z,100.00
2023-07-25T12:08:56.630Z,100.00
2023-07-25T12:11:58.729Z,100.00
2023-07-25T12:15:02.623Z,100.00
2023-07-25T12:18:04.837Z,100.00
2023-07-25T12:21:07.072Z,100.00
2023-07-25T12:24:11.539Z,100.00
2023-07-25T12:27:17.290Z,100.00
2023-07-25T12:30:19.174Z,100.00
2023-07-25T12:33:21.706Z,100.00
2023-07-25T12:36:23.799Z,100.00
2023-07-25T12:39:27.180Z,100.00
2023-07-25T12:42:29.011Z,100.00
2023-07-25T12:45:31.194Z,100.00
2023-07-25T12:48:33.263Z,100.00
2023-07-25T12:51:35.246Z,100.00
2023-07-25T12:54:38.888Z,100.00
2023-07-25T12:57:40.830Z,100.00
2023-07-25T13:00:43.929Z,100.00
2023-07-25T13:03:46.270Z,100.00
2023-07-25T13:06:50.705Z,100.00
2023-07-25T13:09:54.061Z,100.00
2023-07-25T13:12:55.967Z,100.00
2023-07-25T13:15:57.845Z,100.00
2023-07-25T13:18:59.891Z,100.00
2023-07-25T13:22:02.100Z,100.00
2023-07-25T13:25:06.297Z,100.00
2023-07-25T13:28:08.573Z,100.00
2023-07-25T13:31:10.392Z,100.00
2023-07-25T13:34:12.513Z,100.00
2023-07-25T13:37:14.878Z,100.00
2023-07-25T13:40:18.183Z,100.00
2023-07-25T13:43:20.205Z,100.00
2023-07-25T13:46:22.326Z,100.00
2023-07-25T13:49:24.149Z,100.00
2023-07-25T13:52:26.054Z,100.00
2023-07-25T13:55:29.309Z,100.00
2023-07-25T13:58:31.510Z,100.00
2023-07-25T14:01:33.748Z,100.00
2023-07-25T14:04:37.966Z,100.00
2023-07-25T14:07:41.356Z,100.00
2023-07-25T14:10:46.831Z,100.00
2023-07-25T14:13:49.811Z,100.00
2023-07-25T14:16:53.106Z,100.00
2023-07-25T14:19:56.563Z,100.00
2023-07-25T14:22:59.450Z,100.00
2023-07-25T14:26:04.799Z,100.00
2023-07-25T14:29:07.881Z,99.95
2023-07-25T14:32:11.071Z,99.55
2023-07-25T14:35:13.917Z,98.08
2023-07-25T14:38:18.307Z,96.52
2023-07-25T14:41:22.806Z,94.70
2023-07-25T14:44:25.413Z,94.17
2023-07-25T14:47:27.757Z,91.87
2023-07-25T14:50:30.055Z,93.55
2023-07-25T14:53:32.210Z,91.57
2023-07-25T14:56:35.825Z,90.06
2023-07-25T14:59:38.886Z,91.61
2023-07-25T15:02:42.768Z,93.53
2023-07-25T15:05:44.729Z,89.59
2023-07-25T15:08:46.819Z,91.06
2023-07-25T15:11:50.427Z,91.64
2023-07-25T15:14:52.757Z,91.63
2023-07-25T15:17:55.482Z,92.37
2023-07-25T15:20:58.376Z,92.79
2023-07-25T15:24:01.288Z,93.91
2023-07-25T15:27:06.646Z,94.52
2023-07-25T15:30:11.652Z,95.47
2023-07-25T15:33:15.151Z,96.66
2023-07-25T15:36:19.628Z,96.26
2023-07-25T15:39:23.419Z,97.34
2023-07-25T15:42:28.156Z,98.05
2023-07-25T15:45:31.891Z,98.66
2023-07-25T15:48:35.676Z,97.61
2023-07-25T15:51:40.262Z,97.98
2023-07-25T15:54:43.803Z,98.81
2023-07-25T15:57:48.628Z,96.92
2023-07-25T16:00:52.512Z,92.71
2023-07-25T16:03:55.723Z,88.63
2023-07-25T16:06:59.158Z,87.96
2023-07-25T16:10:03.449Z,88.08
2023-07-25T16:13:08.145Z,88.08
2023-07-25T16:16:11.578Z,88.06
2023-07-25T16:19:15.300Z,85.13
2023-07-25T16:22:18.783Z,85.42
2023-07-25T16:25:23.754Z,83.89
2023-07-25T16:28:29.007Z,83.76
2023-07-25T16:31:34.103Z,85.09
2023-07-25T16:34:38.543Z,79.25
2023-07-25T16:37:43.422Z,78.92
2023-07-25T16:40:47.485Z,74.55
2023-07-25T16:43:52.947Z,72.49
2023-07-25T16:46:56.787Z,69.19
2023-07-25T16:50:00.209Z,72.26
2023-07-25T16:53:07.095Z,73.04
2023-07-25T16:56:12.195Z,75.22
2023-07-25T16:59:18.866Z,75.34
2023-07-25T17:02:23.581Z,75.60
2023-07-25T17:05:27.305Z,76.39
2023-07-25T17:08:31.190Z,79.29
2023-07-25T17:11:36.379Z,79.23
2023-07-25T17:14:42.029Z,79.84
2023-07-25T17:17:46.175Z,79.28
2023-07-25T17:20:49.933Z,81.30
2023-07-25T17:23:54.812Z,81.97
2023-07-25T17:26:59.163Z,82.57
2023-07-25T17:30:04.701Z,83.84
2023-07-25T17:33:08.993Z,83.99
2023-07-25T17:36:13.000Z,86.07
2023-07-25T17:39:17.297Z,85.31
2023-07-25T17:42:21.513Z,86.38
2023-07-25T17:45:28.800Z,87.54
2023-07-25T17:48:32.356Z,87.40
2023-07-25T17:51:37.864Z,89.44
2023-07-25T17:54:42.058Z,92.94
2023-07-25T17:57:46.969Z,100.00
2023-07-25T18:00:52.395Z,100.00
2023-07-25T18:03:56.679Z,100.00
2023-07-25T18:07:01.108Z,100.00
2023-07-25T18:10:05.193Z,100.00
2023-07-25T18:13:08.926Z,100.00
2023-07-25T18:16:15.003Z,100.00
2023-07-25T18:19:18.556Z,100.00
2023-07-25T18:22:25.120Z,100.00
2023-07-25T18:25:28.832Z,100.00
2023-07-25T18:28:32.961Z,100.00
2023-07-25T18:31:38.960Z,100.00
2023-07-25T18:34:42.623Z,100.00
2023-07-25T18:37:48.364Z,100.00
2023-07-25T18:40:52.878Z,100.00
2023-07-25T18:43:56.323Z,100.00
2023-07-25T18:47:02.796Z,100.00
2023-07-25T18:50:08.438Z,100.00
2023-07-25T18:53:12.111Z,100.00
2023-07-25T18:56:19.052Z,100.00
2023-07-25T18:59:23.539Z,100.00
2023-07-25T19:02:40.152Z,100.00
2023-07-25T19:05:45.231Z,100.00
2023-07-25T19:08:50.083Z,100.00
2023-07-25T19:11:57.423Z,100.00
2023-07-25T19:15:01.746Z,100.00
2023-07-25T19:18:09.315Z,100.00
2023-07-25T19:21:13.178Z,100.00
2023-07-25T19:24:19.076Z,100.00
2023-07-25T19:27:24.420Z,100.00
2023-07-25T19:30:28.419Z,100.00
2023-07-25T19:33:41.780Z,100.00
2023-07-25T19:36:47.416Z,100.00
2023-07-25T19:39:52.349Z,100.00
2023-07-25T19:42:56.125Z,100.00
2023-07-25T19:46:06.318Z,100.00
2023-07-25T19:49:15.860Z,100.00
2023-07-25T19:52:19.853Z,100.00
2023-07-25T19:55:24.172Z,100.00
2023-07-25T19:58:28.137Z,100.00
2023-07-25T20:01:32.292Z,100.00
2023-07-25T20:04:38.180Z,100.00
2023-07-25T20:07:44.232Z,100.00
2023-07-25T20:10:48.033Z,100.00
2023-07-25T20:13:52.559Z,100.00
2023-07-25T20:16:56.514Z,100.00
2023-07-25T20:20:01.971Z,100.00
2023-07-25T20:23:06.516Z,100.00
2023-07-25T20:26:10.943Z,100.00
2023-07-25T20:29:15.484Z,100.00
2023-07-25T20:32:20.235Z,100.00
2023-07-25T20:35:25.839Z,100.00
2023-07-25T20:38:29.961Z,100.00
2023-07-25T20:41:34.100Z,100.00
2023-07-25T20:44:39.119Z,100.00
2023-07-25T20:47:43.225Z,100.00
2023-07-25T20:50:50.046Z,100.00
2023-07-25T20:53:54.327Z,100.00
2023-07-25T20:56:58.120Z,100.00
2023-07-25T21:00:02.137Z,100.00
2023-07-25T21:03:04.323Z,100.00
2023-07-25T21:06:07.570Z,100.00
2023-07-25T21:09:09.408Z,100.00
2023-07-25T21:12:13.379Z,100.00
2023-07-25T21:15:15.945Z,100.00
2023-07-25T21:18:17.739Z,100.00
2023-07-25T21:21:22.411Z,100.00
2023-07-25T21:24:24.624Z,100.00
2023-07-25T21:27:26.345Z,100.00
2023-07-25T21:30:28.448Z,100.00
2023-07-25T21:33:30.570Z,100.00
2023-07-25T21:36:34.098Z,100.00
2023-07-25T21:39:36.087Z,100.00
2023-07-25T21:42:38.024Z,100.00
2023-07-25T21:45:41.254Z,100.00
2023-07-25T21:48:43.051Z,100.00
2023-07-25T21:51:46.233Z,100.00
2023-07-25T21:54:48.082Z,100.00
2023-07-25T21:57:50.121Z,100.00
2023-07-25T22:00:52.417Z,100.00
2023-07-25T22:03:55.131Z,100.00
2023-07-25T22:06:58.299Z,100.00
2023-07-25T22:10:00.064Z,100.00
2023-07-25T22:13:02.389Z,100.00
2023-07-25T22:16:04.588Z,100.00
2023-07-25T22:19:06.824Z,100.00
2023-07-25T22:22:10.109Z,100.00
2023-07-25T22:25:12.090Z,100.00
2023-07-25T22:28:14.176Z,100.00
2023-07-25T22:31:16.161Z,100.00
2023-07-25T22:34:18.050Z,100.00
2023-07-25T22:37:21.616Z,100.00
2023-07-25T22:40:23.427Z,100.00
2023-07-25T22:43:25.768Z,100.00
2023-07-25T22:46:27.829Z,100.00
2023-07-25T22:49:30.159Z,100.00
2023-07-25T22:52:33.515Z,100.00
2023-07-25T22:55:35.446Z,100.00
2023-07-25T22:58:37.232Z,100.00
2023-07-25T23:01:39.061Z,100.00
2023-07-25T23:04:40.887Z,100.00
2023-07-25T23:07:44.830Z,100.00
2023-07-25T23:10:53.740Z,100.00
2023-07-25T23:13:56.164Z,100.00
2023-07-25T23:16:57.999Z,100.00
2023-07-25T23:19:59.981Z,100.00
2023-07-25T23:23:03.589Z,100.00
2023-07-25T23:26:06.669Z,100.00
2023-07-25T23:29:08.447Z,100.00
2023-07-25T23:32:10.573Z,100.00
2023-07-25T23:35:12.754Z,100.00
2023-07-25T23:38:16.501Z,100.00
2023-07-25T23:41:18.408Z,100.00
2023-07-25T23:44:20.488Z,100.00
2023-07-25T23:47:22.306Z,100.00
2023-07-25T23:50:24.225Z,100.00
2023-07-25T23:53:27.973Z,100.00
2023-07-25T23:56:30.621Z,100.00
2023-07-25T23:59:32.747Z,100.00
